sensor_id;sensor_type;location;lat;lon;timestamp;P1;durP1;ratioP1;P2;durP2;ratioP2
49416;SDS011;35290;39.550;8.786;2023-03-01T00:01:04;14.98;;;9.45;;
49416;SDS011;35290;39.550;8.786;2023-03-01T00:03:32;16.38;;;9.57;;
49416;SDS011;35290;39.550;8.786;2023-03-01T00:06:02;14.55;;;9.55;;
49416;SDS011;35290;39.550;8.786;2023-03-01T00:08:28;15.23;;;9.20;;
49416;SDS011;35290;39.550;8.786;2023-03-01T00:11:05;13.60;;;8.85;;
49416;SDS011;35290;39.550;8.786;2023-03-01T00:13:45;19.05;;;9.60;;
49416;SDS011;35290;39.550;8.786;2023-03-01T00:16:12;17.20;;;9.55;;
49416;SDS011;35290;39.550;8.786;2023-03-01T00:18:42;13.90;;;8.70;;
49416;SDS011;35290;39.550;8.786;2023-03-01T00:21:08;12.60;;;8.57;;
49416;SDS011;35290;39.550;8.786;2023-03-01T00:23:34;12.32;;;8.50;;
49416;SDS011;35290;39.550;8.786;2023-03-01T00:26:00;15.63;;;8.85;;
49416;SDS011;35290;39.550;8.786;2023-03-01T00:28:25;12.00;;;8.50;;
49416;SDS011;35290;39.550;8.786;2023-03-01T00:30:51;13.60;;;8.88;;
49416;SDS011;35290;39.550;8.786;2023-03-01T00:33:17;14.52;;;8.73;;
49416;SDS011;35290;39.550;8.786;2023-03-01T00:35:42;15.23;;;8.93;;
49416;SDS011;35290;39.550;8.786;2023-03-01T00:38:08;15.00;;;9.43;;
49416;SDS011;35290;39.550;8.786;2023-03-01T00:40:34;16.48;;;9.82;;
49416;SDS011;35290;39.550;8.786;2023-03-01T00:43:00;15.10;;;10.02;;
49416;SDS011;35290;39.550;8.786;2023-03-01T00:45:26;13.32;;;9.40;;
49416;SDS011;35290;39.550;8.786;2023-03-01T00:47:52;14.70;;;9.48;;
49416;SDS011;35290;39.550;8.786;2023-03-01T00:50:18;13.55;;;9.13;;
49416;SDS011;35290;39.550;8.786;2023-03-01T00:52:44;12.55;;;8.05;;
49416;SDS011;35290;39.550;8.786;2023-03-01T00:55:10;10.50;;;7.28;;
49416;SDS011;35290;39.550;8.786;2023-03-01T00:57:36;13.82;;;7.47;;
49416;SDS011;35290;39.550;8.786;2023-03-01T01:00:02;11.80;;;7.15;;
49416;SDS011;35290;39.550;8.786;2023-03-01T01:02:29;13.07;;;6.60;;
49416;SDS011;35290;39.550;8.786;2023-03-01T01:04:55;9.18;;;5.25;;
49416;SDS011;35290;39.550;8.786;2023-03-01T01:07:20;10.65;;;5.13;;
49416;SDS011;35290;39.550;8.786;2023-03-01T01:09:46;8.20;;;4.72;;
49416;SDS011;35290;39.550;8.786;2023-03-01T01:12:11;12.73;;;4.30;;
49416;SDS011;35290;39.550;8.786;2023-03-01T01:14:37;7.40;;;3.45;;
49416;SDS011;35290;39.550;8.786;2023-03-01T01:17:03;7.57;;;3.47;;
49416;SDS011;35290;39.550;8.786;2023-03-01T01:19:29;9.32;;;3.05;;
49416;SDS011;35290;39.550;8.786;2023-03-01T01:21:54;8.45;;;4.18;;
49416;SDS011;35290;39.550;8.786;2023-03-01T01:24:19;7.80;;;3.47;;
49416;SDS011;35290;39.550;8.786;2023-03-01T01:26:46;7.95;;;3.67;;
49416;SDS011;35290;39.550;8.786;2023-03-01T01:29:12;7.93;;;2.95;;
49416;SDS011;35290;39.550;8.786;2023-03-01T01:31:38;5.20;;;2.15;;
49416;SDS011;35290;39.550;8.786;2023-03-01T01:34:06;5.65;;;2.28;;
49416;SDS011;35290;39.550;8.786;2023-03-01T01:36:32;5.20;;;2.38;;
49416;SDS011;35290;39.550;8.786;2023-03-01T01:38:58;4.60;;;1.88;;
49416;SDS011;35290;39.550;8.786;2023-03-01T01:41:24;5.47;;;2.15;;
49416;SDS011;35290;39.550;8.786;2023-03-01T01:44:10;4.43;;;1.88;;
49416;SDS011;35290;39.550;8.786;2023-03-01T01:46:52;6.78;;;1.77;;
49416;SDS011;35290;39.550;8.786;2023-03-01T01:49:41;5.80;;;1.70;;
49416;SDS011;35290;39.550;8.786;2023-03-01T01:52:21;2.45;;;1.80;;
49416;SDS011;35290;39.550;8.786;2023-03-01T01:54:52;6.43;;;2.75;;
49416;SDS011;35290;39.550;8.786;2023-03-01T01:57:22;3.38;;;1.65;;
49416;SDS011;35290;39.550;8.786;2023-03-01T01:59:54;6.13;;;1.88;;
49416;SDS011;35290;39.550;8.786;2023-03-01T02:02:22;4.82;;;1.50;;
49416;SDS011;35290;39.550;8.786;2023-03-01T02:04:48;4.57;;;2.00;;
49416;SDS011;35290;39.550;8.786;2023-03-01T02:07:16;6.82;;;1.90;;
49416;SDS011;35290;39.550;8.786;2023-03-01T02:09:45;3.55;;;1.60;;
49416;SDS011;35290;39.550;8.786;2023-03-01T02:12:13;4.18;;;1.60;;
49416;SDS011;35290;39.550;8.786;2023-03-01T02:14:40;4.50;;;1.48;;
49416;SDS011;35290;39.550;8.786;2023-03-01T02:17:05;3.80;;;1.60;;
49416;SDS011;35290;39.550;8.786;2023-03-01T02:27:38;4.30;;;2.10;;
49416;SDS011;35290;39.550;8.786;2023-03-01T02:30:11;6.45;;;2.30;;
49416;SDS011;35290;39.550;8.786;2023-03-01T02:32:38;7.65;;;3.65;;
49416;SDS011;35290;39.550;8.786;2023-03-01T02:35:08;7.45;;;3.70;;
49416;SDS011;35290;39.550;8.786;2023-03-01T02:37:35;7.57;;;3.22;;
49416;SDS011;35290;39.550;8.786;2023-03-01T02:40:02;7.63;;;2.70;;
49416;SDS011;35290;39.550;8.786;2023-03-01T02:42:33;7.03;;;2.80;;
49416;SDS011;35290;39.550;8.786;2023-03-01T02:45:02;3.55;;;2.10;;
49416;SDS011;35290;39.550;8.786;2023-03-01T02:47:28;4.18;;;2.58;;
49416;SDS011;35290;39.550;8.786;2023-03-01T02:49:53;7.43;;;2.00;;
49416;SDS011;35290;39.550;8.786;2023-03-01T02:57:34;5.60;;;2.20;;
49416;SDS011;35290;39.550;8.786;2023-03-01T03:00:06;3.50;;;2.17;;
49416;SDS011;35290;39.550;8.786;2023-03-01T03:02:34;4.80;;;2.70;;
49416;SDS011;35290;39.550;8.786;2023-03-01T03:07:31;3.83;;;2.28;;
49416;SDS011;35290;39.550;8.786;2023-03-01T03:09:59;3.72;;;2.83;;
49416;SDS011;35290;39.550;8.786;2023-03-01T03:12:27;5.65;;;3.10;;
49416;SDS011;35290;39.550;8.786;2023-03-01T03:14:53;5.35;;;3.70;;
49416;SDS011;35290;39.550;8.786;2023-03-01T03:17:18;7.53;;;4.32;;
49416;SDS011;35290;39.550;8.786;2023-03-01T03:19:44;6.22;;;4.28;;
49416;SDS011;35290;39.550;8.786;2023-03-01T03:22:11;7.13;;;4.22;;
49416;SDS011;35290;39.550;8.786;2023-03-01T03:24:37;5.93;;;3.58;;
49416;SDS011;35290;39.550;8.786;2023-03-01T03:27:03;6.15;;;3.83;;
49416;SDS011;35290;39.550;8.786;2023-03-01T03:29:29;6.93;;;3.70;;
49416;SDS011;35290;39.550;8.786;2023-03-01T03:31:55;6.72;;;3.65;;
49416;SDS011;35290;39.550;8.786;2023-03-01T03:34:21;6.00;;;4.00;;
49416;SDS011;35290;39.550;8.786;2023-03-01T03:36:46;5.57;;;3.97;;
49416;SDS011;35290;39.550;8.786;2023-03-01T03:39:11;6.47;;;4.55;;
49416;SDS011;35290;39.550;8.786;2023-03-01T03:41:37;6.63;;;4.68;;
49416;SDS011;35290;39.550;8.786;2023-03-01T03:44:02;7.45;;;5.22;;
49416;SDS011;35290;39.550;8.786;2023-03-01T03:46:28;9.18;;;6.45;;
49416;SDS011;35290;39.550;8.786;2023-03-01T03:48:54;12.50;;;9.30;;
49416;SDS011;35290;39.550;8.786;2023-03-01T03:51:19;16.75;;;10.90;;
49416;SDS011;35290;39.550;8.786;2023-03-01T03:53:47;13.73;;;9.98;;
49416;SDS011;35290;39.550;8.786;2023-03-01T03:56:13;13.48;;;10.20;;
49416;SDS011;35290;39.550;8.786;2023-03-01T03:58:39;12.68;;;9.38;;
49416;SDS011;35290;39.550;8.786;2023-03-01T04:01:05;12.50;;;7.55;;
49416;SDS011;35290;39.550;8.786;2023-03-01T04:03:31;12.55;;;8.30;;
49416;SDS011;35290;39.550;8.786;2023-03-01T04:05:57;13.27;;;9.65;;
49416;SDS011;35290;39.550;8.786;2023-03-01T04:08:24;13.35;;;10.15;;
49416;SDS011;35290;39.550;8.786;2023-03-01T04:10:51;13.63;;;9.18;;
49416;SDS011;35290;39.550;8.786;2023-03-01T04:13:19;10.55;;;9.43;;
49416;SDS011;35290;39.550;8.786;2023-03-01T04:15:47;12.70;;;9.68;;
49416;SDS011;35290;39.550;8.786;2023-03-01T04:18:17;13.45;;;9.25;;
49416;SDS011;35290;39.550;8.786;2023-03-01T04:20:44;10.88;;;8.52;;
49416;SDS011;35290;39.550;8.786;2023-03-01T04:23:11;11.73;;;9.15;;
49416;SDS011;35290;39.550;8.786;2023-03-01T04:25:41;12.45;;;9.07;;
49416;SDS011;35290;39.550;8.786;2023-03-01T04:28:10;11.57;;;9.07;;
49416;SDS011;35290;39.550;8.786;2023-03-01T04:30:36;10.80;;;8.57;;
49416;SDS011;35290;39.550;8.786;2023-03-01T04:33:03;13.00;;;8.95;;
49416;SDS011;35290;39.550;8.786;2023-03-01T04:35:36;10.45;;;8.02;;
49416;SDS011;35290;39.550;8.786;2023-03-01T04:38:03;10.10;;;7.28;;
49416;SDS011;35290;39.550;8.786;2023-03-01T04:40:29;8.88;;;6.63;;
49416;SDS011;35290;39.550;8.786;2023-03-01T04:42:54;10.82;;;7.55;;
49416;SDS011;35290;39.550;8.786;2023-03-01T04:45:20;10.77;;;8.07;;
49416;SDS011;35290;39.550;8.786;2023-03-01T04:47:46;10.18;;;7.93;;
49416;SDS011;35290;39.550;8.786;2023-03-01T04:50:12;12.32;;;8.98;;
49416;SDS011;35290;39.550;8.786;2023-03-01T04:52:40;12.82;;;9.13;;
49416;SDS011;35290;39.550;8.786;2023-03-01T04:55:06;10.85;;;8.65;;
49416;SDS011;35290;39.550;8.786;2023-03-01T04:57:32;12.07;;;8.38;;
49416;SDS011;35290;39.550;8.786;2023-03-01T04:59:58;10.63;;;7.57;;
49416;SDS011;35290;39.550;8.786;2023-03-01T05:02:23;10.63;;;7.68;;
49416;SDS011;35290;39.550;8.786;2023-03-01T05:04:49;9.75;;;7.40;;
49416;SDS011;35290;39.550;8.786;2023-03-01T05:07:14;10.13;;;7.57;;
49416;SDS011;35290;39.550;8.786;2023-03-01T05:09:47;9.45;;;7.20;;
49416;SDS011;35290;39.550;8.786;2023-03-01T05:12:13;8.30;;;6.82;;
49416;SDS011;35290;39.550;8.786;2023-03-01T05:14:39;9.77;;;7.10;;
49416;SDS011;35290;39.550;8.786;2023-03-01T05:17:05;9.10;;;6.65;;
49416;SDS011;35290;39.550;8.786;2023-03-01T05:19:31;9.48;;;6.80;;
49416;SDS011;35290;39.550;8.786;2023-03-01T05:21:58;8.18;;;6.78;;
49416;SDS011;35290;39.550;8.786;2023-03-01T05:24:26;8.55;;;6.88;;
49416;SDS011;35290;39.550;8.786;2023-03-01T05:26:52;10.38;;;6.72;;
49416;SDS011;35290;39.550;8.786;2023-03-01T05:29:19;10.88;;;6.82;;
49416;SDS011;35290;39.550;8.786;2023-03-01T05:31:50;10.85;;;7.40;;
49416;SDS011;35290;39.550;8.786;2023-03-01T05:34:17;14.10;;;9.43;;
49416;SDS011;35290;39.550;8.786;2023-03-01T05:36:43;13.52;;;8.45;;
49416;SDS011;35290;39.550;8.786;2023-03-01T05:39:08;14.55;;;8.27;;
49416;SDS011;35290;39.550;8.786;2023-03-01T05:41:34;16.05;;;7.57;;
49416;SDS011;35290;39.550;8.786;2023-03-01T05:43:59;9.35;;;6.40;;
49416;SDS011;35290;39.550;8.786;2023-03-01T05:46:24;7.97;;;5.65;;
49416;SDS011;35290;39.550;8.786;2023-03-01T05:48:50;7.13;;;4.95;;
49416;SDS011;35290;39.550;8.786;2023-03-01T05:51:15;7.10;;;5.10;;
49416;SDS011;35290;39.550;8.786;2023-03-01T05:53:42;9.38;;;5.25;;
49416;SDS011;35290;39.550;8.786;2023-03-01T05:56:07;8.43;;;5.07;;
49416;SDS011;35290;39.550;8.786;2023-03-01T05:58:33;21.83;;;9.77;;
49416;SDS011;35290;39.550;8.786;2023-03-01T06:00:58;10.18;;;6.75;;
49416;SDS011;35290;39.550;8.786;2023-03-01T06:03:24;9.93;;;5.88;;
49416;SDS011;35290;39.550;8.786;2023-03-01T06:05:49;7.95;;;4.63;;
49416;SDS011;35290;39.550;8.786;2023-03-01T06:08:21;9.27;;;5.47;;
49416;SDS011;35290;39.550;8.786;2023-03-01T06:10:47;9.60;;;5.55;;
49416;SDS011;35290;39.550;8.786;2023-03-01T06:13:12;9.45;;;5.90;;
49416;SDS011;35290;39.550;8.786;2023-03-01T06:15:38;10.73;;;5.85;;
49416;SDS011;35290;39.550;8.786;2023-03-01T06:18:03;25.17;;;13.52;;
49416;SDS011;35290;39.550;8.786;2023-03-01T06:20:29;38.22;;;19.33;;
49416;SDS011;35290;39.550;8.786;2023-03-01T06:22:54;40.45;;;20.73;;
49416;SDS011;35290;39.550;8.786;2023-03-01T06:25:21;49.78;;;24.98;;
49416;SDS011;35290;39.550;8.786;2023-03-01T06:27:48;29.55;;;15.25;;
49416;SDS011;35290;39.550;8.786;2023-03-01T06:30:15;34.67;;;17.58;;
49416;SDS011;35290;39.550;8.786;2023-03-01T06:32:42;20.77;;;12.18;;
49416;SDS011;35290;39.550;8.786;2023-03-01T06:35:08;18.13;;;9.88;;
49416;SDS011;35290;39.550;8.786;2023-03-01T06:37:35;9.73;;;6.38;;
49416;SDS011;35290;39.550;8.786;2023-03-01T06:40:01;8.38;;;5.30;;
49416;SDS011;35290;39.550;8.786;2023-03-01T06:42:33;6.65;;;4.22;;
49416;SDS011;35290;39.550;8.786;2023-03-01T06:44:59;10.13;;;5.13;;
49416;SDS011;35290;39.550;8.786;2023-03-01T06:47:25;7.18;;;3.72;;
49416;SDS011;35290;39.550;8.786;2023-03-01T06:49:50;7.72;;;3.80;;
49416;SDS011;35290;39.550;8.786;2023-03-01T06:52:16;5.85;;;4.20;;
49416;SDS011;35290;39.550;8.786;2023-03-01T06:54:41;12.15;;;4.90;;
49416;SDS011;35290;39.550;8.786;2023-03-01T06:57:07;6.85;;;3.85;;
49416;SDS011;35290;39.550;8.786;2023-03-01T06:59:32;7.65;;;3.45;;
49416;SDS011;35290;39.550;8.786;2023-03-01T07:01:58;6.60;;;3.00;;
49416;SDS011;35290;39.550;8.786;2023-03-01T07:04:23;5.53;;;3.40;;
49416;SDS011;35290;39.550;8.786;2023-03-01T07:06:49;8.27;;;3.78;;
49416;SDS011;35290;39.550;8.786;2023-03-01T07:09:20;6.43;;;3.20;;
49416;SDS011;35290;39.550;8.786;2023-03-01T07:11:47;4.43;;;2.75;;
49416;SDS011;35290;39.550;8.786;2023-03-01T07:14:13;5.40;;;2.97;;
49416;SDS011;35290;39.550;8.786;2023-03-01T07:16:38;7.40;;;3.05;;
49416;SDS011;35290;39.550;8.786;2023-03-01T07:19:04;7.13;;;4.10;;
49416;SDS011;35290;39.550;8.786;2023-03-01T07:21:30;6.15;;;3.45;;
49416;SDS011;35290;39.550;8.786;2023-03-01T07:23:56;5.10;;;3.35;;
49416;SDS011;35290;39.550;8.786;2023-03-01T07:26:21;6.15;;;3.40;;
49416;SDS011;35290;39.550;8.786;2023-03-01T07:28:47;4.75;;;3.53;;
49416;SDS011;35290;39.550;8.786;2023-03-01T07:31:12;5.32;;;3.15;;
49416;SDS011;35290;39.550;8.786;2023-03-01T07:33:38;7.30;;;3.72;;
49416;SDS011;35290;39.550;8.786;2023-03-01T07:36:04;8.10;;;4.00;;
49416;SDS011;35290;39.550;8.786;2023-03-01T07:38:30;6.88;;;4.15;;
49416;SDS011;35290;39.550;8.786;2023-03-01T07:40:59;7.03;;;4.32;;
49416;SDS011;35290;39.550;8.786;2023-03-01T07:43:26;7.95;;;4.03;;
49416;SDS011;35290;39.550;8.786;2023-03-01T07:45:53;10.77;;;5.00;;
49416;SDS011;35290;39.550;8.786;2023-03-01T07:48:18;8.27;;;4.07;;
49416;SDS011;35290;39.550;8.786;2023-03-01T07:50:44;7.75;;;3.85;;
49416;SDS011;35290;39.550;8.786;2023-03-01T07:53:09;5.90;;;4.15;;
49416;SDS011;35290;39.550;8.786;2023-03-01T07:55:36;6.22;;;3.60;;
49416;SDS011;35290;39.550;8.786;2023-03-01T07:58:01;6.20;;;3.80;;
49416;SDS011;35290;39.550;8.786;2023-03-01T08:00:27;5.30;;;3.00;;
49416;SDS011;35290;39.550;8.786;2023-03-01T08:02:52;6.20;;;3.80;;
49416;SDS011;35290;39.550;8.786;2023-03-01T08:05:18;7.78;;;4.50;;
49416;SDS011;35290;39.550;8.786;2023-03-01T08:07:43;10.93;;;6.18;;
49416;SDS011;35290;39.550;8.786;2023-03-01T08:10:09;13.90;;;7.10;;
49416;SDS011;35290;39.550;8.786;2023-03-01T08:12:35;10.65;;;6.93;;
49416;SDS011;35290;39.550;8.786;2023-03-01T08:15:01;9.82;;;5.50;;
49416;SDS011;35290;39.550;8.786;2023-03-01T08:17:26;12.02;;;6.07;;
49416;SDS011;35290;39.550;8.786;2023-03-01T08:19:52;7.38;;;4.90;;
49416;SDS011;35290;39.550;8.786;2023-03-01T08:22:17;6.53;;;4.20;;
49416;SDS011;35290;39.550;8.786;2023-03-01T08:24:43;16.23;;;4.35;;
49416;SDS011;35290;39.550;8.786;2023-03-01T08:27:08;10.80;;;3.72;;
49416;SDS011;35290;39.550;8.786;2023-03-01T08:29:34;6.85;;;3.60;;
49416;SDS011;35290;39.550;8.786;2023-03-01T08:31:59;6.35;;;4.18;;
49416;SDS011;35290;39.550;8.786;2023-03-01T08:34:26;7.85;;;4.18;;
49416;SDS011;35290;39.550;8.786;2023-03-01T08:36:51;9.15;;;4.30;;
49416;SDS011;35290;39.550;8.786;2023-03-01T08:39:18;9.43;;;3.78;;
49416;SDS011;35290;39.550;8.786;2023-03-01T08:41:45;12.95;;;3.50;;
49416;SDS011;35290;39.550;8.786;2023-03-01T08:44:12;7.07;;;2.60;;
49416;SDS011;35290;39.550;8.786;2023-03-01T08:46:39;7.13;;;2.60;;
49416;SDS011;35290;39.550;8.786;2023-03-01T08:49:06;8.77;;;3.17;;
49416;SDS011;35290;39.550;8.786;2023-03-01T08:51:33;43.50;;;9.23;;
49416;SDS011;35290;39.550;8.786;2023-03-01T08:54:04;11.68;;;4.20;;
49416;SDS011;35290;39.550;8.786;2023-03-01T08:56:30;7.05;;;3.28;;
49416;SDS011;35290;39.550;8.786;2023-03-01T08:58:56;6.47;;;3.00;;
49416;SDS011;35290;39.550;8.786;2023-03-01T09:01:22;33.90;;;4.93;;
49416;SDS011;35290;39.550;8.786;2023-03-01T09:03:47;7.55;;;2.85;;
49416;SDS011;35290;39.550;8.786;2023-03-01T09:06:13;5.63;;;2.80;;
49416;SDS011;35290;39.550;8.786;2023-03-01T09:08:43;6.50;;;3.40;;
49416;SDS011;35290;39.550;8.786;2023-03-01T09:11:11;8.05;;;3.20;;
49416;SDS011;35290;39.550;8.786;2023-03-01T09:13:37;6.97;;;2.20;;
49416;SDS011;35290;39.550;8.786;2023-03-01T09:16:04;7.22;;;3.50;;
49416;SDS011;35290;39.550;8.786;2023-03-01T09:18:31;6.05;;;2.90;;
49416;SDS011;35290;39.550;8.786;2023-03-01T09:21:06;16.95;;;7.38;;
49416;SDS011;35290;39.550;8.786;2023-03-01T09:23:37;11.13;;;4.68;;
49416;SDS011;35290;39.550;8.786;2023-03-01T09:26:05;13.60;;;4.43;;
49416;SDS011;35290;39.550;8.786;2023-03-01T09:28:34;11.00;;;3.10;;
49416;SDS011;35290;39.550;8.786;2023-03-01T09:31:00;6.55;;;3.85;;
49416;SDS011;35290;39.550;8.786;2023-03-01T09:33:28;10.10;;;4.95;;
49416;SDS011;35290;39.550;8.786;2023-03-01T09:35:58;8.77;;;3.17;;
49416;SDS011;35290;39.550;8.786;2023-03-01T09:38:23;5.28;;;2.50;;
49416;SDS011;35290;39.550;8.786;2023-03-01T09:40:51;5.60;;;2.17;;
49416;SDS011;35290;39.550;8.786;2023-03-01T09:46:22;4.55;;;1.60;;
49416;SDS011;35290;39.550;8.786;2023-03-01T09:48:50;3.72;;;1.55;;
49416;SDS011;35290;39.550;8.786;2023-03-01T09:51:19;4.53;;;1.58;;
49416;SDS011;35290;39.550;8.786;2023-03-01T09:53:50;4.22;;;1.67;;
49416;SDS011;35290;39.550;8.786;2023-03-01T09:56:24;5.88;;;2.90;;
49416;SDS011;35290;39.550;8.786;2023-03-01T09:59:41;4.05;;;1.98;;
49416;SDS011;35290;39.550;8.786;2023-03-01T10:01:50;4.60;;;2.22;;
49416;SDS011;35290;39.550;8.786;2023-03-01T10:04:24;4.95;;;2.88;;
49416;SDS011;35290;39.550;8.786;2023-03-01T10:09:42;36.90;;;4.03;;
49416;SDS011;35290;39.550;8.786;2023-03-01T10:12:13;10.02;;;2.97;;
49416;SDS011;35290;39.550;8.786;2023-03-01T10:20:17;9.73;;;2.60;;
49416;SDS011;35290;39.550;8.786;2023-03-01T10:22:44;2.60;;;1.70;;
49416;SDS011;35290;39.550;8.786;2023-03-01T10:28:10;4.95;;;3.17;;
49416;SDS011;35290;39.550;8.786;2023-03-01T10:30:41;7.30;;;2.90;;
49416;SDS011;35290;39.550;8.786;2023-03-01T10:33:22;4.78;;;3.20;;
49416;SDS011;35290;39.550;8.786;2023-03-01T10:35:49;12.60;;;4.32;;
49416;SDS011;35290;39.550;8.786;2023-03-01T10:38:15;11.02;;;6.00;;
49416;SDS011;35290;39.550;8.786;2023-03-01T10:40:55;11.77;;;5.78;;
49416;SDS011;35290;39.550;8.786;2023-03-01T10:43:22;10.65;;;5.03;;
49416;SDS011;35290;39.550;8.786;2023-03-01T10:45:50;30.38;;;7.55;;
49416;SDS011;35290;39.550;8.786;2023-03-01T10:50:50;5.05;;;2.17;;
49416;SDS011;35290;39.550;8.786;2023-03-01T10:53:35;3.53;;;2.33;;
49416;SDS011;35290;39.550;8.786;2023-03-01T10:56:13;12.27;;;3.30;;
49416;SDS011;35290;39.550;8.786;2023-03-01T10:58:59;7.05;;;2.35;;
49416;SDS011;35290;39.550;8.786;2023-03-01T11:01:29;10.15;;;3.20;;
49416;SDS011;35290;39.550;8.786;2023-03-01T11:06:32;7.80;;;2.30;;
49416;SDS011;35290;39.550;8.786;2023-03-01T11:09:11;9.65;;;2.40;;
49416;SDS011;35290;39.550;8.786;2023-03-01T11:11:45;7.43;;;2.13;;
49416;SDS011;35290;39.550;8.786;2023-03-01T11:14:18;6.53;;;2.53;;
49416;SDS011;35290;39.550;8.786;2023-03-01T11:16:47;3.88;;;1.60;;
49416;SDS011;35290;39.550;8.786;2023-03-01T11:19:18;7.97;;;3.03;;
49416;SDS011;35290;39.550;8.786;2023-03-01T11:22:31;6.15;;;2.03;;
49416;SDS011;35290;39.550;8.786;2023-03-01T11:27:04;5.93;;;2.28;;
49416;SDS011;35290;39.550;8.786;2023-03-01T11:29:38;6.65;;;3.05;;
49416;SDS011;35290;39.550;8.786;2023-03-01T11:32:11;12.82;;;4.03;;
49416;SDS011;35290;39.550;8.786;2023-03-01T11:34:40;9.07;;;3.35;;
49416;SDS011;35290;39.550;8.786;2023-03-01T11:37:21;8.30;;;2.40;;
49416;SDS011;35290;39.550;8.786;2023-03-01T11:39:58;9.88;;;5.00;;
49416;SDS011;35290;39.550;8.786;2023-03-01T11:42:40;11.32;;;4.38;;
49416;SDS011;35290;39.550;8.786;2023-03-01T11:45:36;13.18;;;3.83;;
49416;SDS011;35290;39.550;8.786;2023-03-01T11:56:46;9.18;;;4.13;;
49416;SDS011;35290;39.550;8.786;2023-03-01T12:04:54;19.05;;;9.30;;
49416;SDS011;35290;39.550;8.786;2023-03-01T12:07:34;16.52;;;7.78;;
49416;SDS011;35290;39.550;8.786;2023-03-01T12:10:19;7.20;;;3.42;;
49416;SDS011;35290;39.550;8.786;2023-03-01T12:18:27;9.73;;;4.75;;
49416;SDS011;35290;39.550;8.786;2023-03-01T12:24:03;3.92;;;2.00;;
49416;SDS011;35290;39.550;8.786;2023-03-01T12:30:05;6.60;;;2.20;;
49416;SDS011;35290;39.550;8.786;2023-03-01T12:41:11;8.65;;;3.25;;
49416;SDS011;35290;39.550;8.786;2023-03-01T12:43:41;10.65;;;2.88;;
49416;SDS011;35290;39.550;8.786;2023-03-01T12:49:23;3.72;;;2.30;;
49416;SDS011;35290;39.550;8.786;2023-03-01T12:51:54;5.00;;;1.63;;
49416;SDS011;35290;39.550;8.786;2023-03-01T12:54:29;3.50;;;1.80;;
49416;SDS011;35290;39.550;8.786;2023-03-01T12:56:57;3.28;;;2.10;;
49416;SDS011;35290;39.550;8.786;2023-03-01T13:02:19;2.78;;;1.60;;
49416;SDS011;35290;39.550;8.786;2023-03-01T13:07:23;4.78;;;2.20;;
49416;SDS011;35290;39.550;8.786;2023-03-01T13:09:54;3.55;;;1.75;;
49416;SDS011;35290;39.550;8.786;2023-03-01T13:17:52;4.43;;;1.85;;
49416;SDS011;35290;39.550;8.786;2023-03-01T13:20:30;2.15;;;1.65;;
49416;SDS011;35290;39.550;8.786;2023-03-01T13:26:16;3.35;;;1.02;;
49416;SDS011;35290;39.550;8.786;2023-03-01T13:30:56;4.50;;;1.40;;
49416;SDS011;35290;39.550;8.786;2023-03-01T13:35:51;2.92;;;1.70;;
49416;SDS011;35290;39.550;8.786;2023-03-01T13:41:06;6.63;;;1.60;;
49416;SDS011;35290;39.550;8.786;2023-03-01T13:43:33;3.42;;;1.90;;
49416;SDS011;35290;39.550;8.786;2023-03-01T13:46:01;7.88;;;2.05;;
49416;SDS011;35290;39.550;8.786;2023-03-01T13:48:32;6.88;;;3.08;;
49416;SDS011;35290;39.550;8.786;2023-03-01T13:50:59;2.33;;;1.58;;
49416;SDS011;35290;39.550;8.786;2023-03-01T13:53:27;3.05;;;1.20;;
49416;SDS011;35290;39.550;8.786;2023-03-01T13:55:58;4.20;;;2.08;;
49416;SDS011;35290;39.550;8.786;2023-03-01T13:58:28;6.47;;;2.55;;
49416;SDS011;35290;39.550;8.786;2023-03-01T14:01:03;10.23;;;2.75;;
49416;SDS011;35290;39.550;8.786;2023-03-01T14:03:30;7.80;;;2.50;;
49416;SDS011;35290;39.550;8.786;2023-03-01T14:06:05;7.88;;;4.30;;
49416;SDS011;35290;39.550;8.786;2023-03-01T14:08:37;4.03;;;2.22;;
49416;SDS011;35290;39.550;8.786;2023-03-01T14:11:09;4.93;;;1.70;;
49416;SDS011;35290;39.550;8.786;2023-03-01T14:19:25;6.82;;;2.08;;
49416;SDS011;35290;39.550;8.786;2023-03-01T14:24:51;12.43;;;3.20;;
49416;SDS011;35290;39.550;8.786;2023-03-01T14:27:19;8.10;;;3.83;;
49416;SDS011;35290;39.550;8.786;2023-03-01T14:30:31;6.55;;;3.50;;
49416;SDS011;35290;39.550;8.786;2023-03-01T14:32:37;7.75;;;1.98;;
49416;SDS011;35290;39.550;8.786;2023-03-01T14:35:03;2.80;;;1.38;;
49416;SDS011;35290;39.550;8.786;2023-03-01T14:37:46;5.28;;;1.10;;
49416;SDS011;35290;39.550;8.786;2023-03-01T14:40:24;5.80;;;1.35;;
49416;SDS011;35290;39.550;8.786;2023-03-01T14:42:54;25.40;;;2.70;;
49416;SDS011;35290;39.550;8.786;2023-03-01T14:45:22;4.95;;;1.50;;
49416;SDS011;35290;39.550;8.786;2023-03-01T14:47:50;5.82;;;1.63;;
49416;SDS011;35290;39.550;8.786;2023-03-01T14:50:23;2.47;;;1.10;;
49416;SDS011;35290;39.550;8.786;2023-03-01T14:52:50;4.13;;;1.63;;
49416;SDS011;35290;39.550;8.786;2023-03-01T14:55:25;4.60;;;1.25;;
49416;SDS011;35290;39.550;8.786;2023-03-01T14:57:55;3.22;;;1.38;;
49416;SDS011;35290;39.550;8.786;2023-03-01T15:00:28;3.33;;;1.50;;
49416;SDS011;35290;39.550;8.786;2023-03-01T15:02:55;11.50;;;2.13;;
49416;SDS011;35290;39.550;8.786;2023-03-01T15:05:26;5.00;;;2.15;;
49416;SDS011;35290;39.550;8.786;2023-03-01T15:07:54;18.63;;;6.97;;
49416;SDS011;35290;39.550;8.786;2023-03-01T15:10:24;28.00;;;13.00;;
49416;SDS011;35290;39.550;8.786;2023-03-01T15:12:51;11.20;;;4.53;;
49416;SDS011;35290;39.550;8.786;2023-03-01T15:17:52;6.05;;;2.30;;
49416;SDS011;35290;39.550;8.786;2023-03-01T15:22:47;2.92;;;1.20;;
49416;SDS011;35290;39.550;8.786;2023-03-01T15:25:16;2.97;;;1.15;;
49416;SDS011;35290;39.550;8.786;2023-03-01T15:27:47;3.97;;;1.70;;
49416;SDS011;35290;39.550;8.786;2023-03-01T15:30:25;3.33;;;1.30;;
49416;SDS011;35290;39.550;8.786;2023-03-01T15:35:47;3.35;;;1.05;;
49416;SDS011;35290;39.550;8.786;2023-03-01T15:38:34;4.57;;;1.70;;
49416;SDS011;35290;39.550;8.786;2023-03-01T15:41:01;7.03;;;2.20;;
49416;SDS011;35290;39.550;8.786;2023-03-01T15:43:38;2.85;;;1.80;;
49416;SDS011;35290;39.550;8.786;2023-03-01T15:46:12;2.75;;;0.80;;
49416;SDS011;35290;39.550;8.786;2023-03-01T15:48:47;3.42;;;1.67;;
49416;SDS011;35290;39.550;8.786;2023-03-01T15:51:14;5.30;;;1.80;;
49416;SDS011;35290;39.550;8.786;2023-03-01T15:53:40;8.45;;;3.00;;
49416;SDS011;35290;39.550;8.786;2023-03-01T15:56:06;5.85;;;3.17;;
49416;SDS011;35290;39.550;8.786;2023-03-01T15:58:34;9.52;;;4.15;;
49416;SDS011;35290;39.550;8.786;2023-03-01T16:01:00;7.05;;;3.10;;
49416;SDS011;35290;39.550;8.786;2023-03-01T16:03:26;7.20;;;3.28;;
49416;SDS011;35290;39.550;8.786;2023-03-01T16:05:52;4.35;;;2.50;;
49416;SDS011;35290;39.550;8.786;2023-03-01T16:08:17;8.50;;;3.15;;
49416;SDS011;35290;39.550;8.786;2023-03-01T16:10:43;7.47;;;1.75;;
49416;SDS011;35290;39.550;8.786;2023-03-01T16:13:10;5.18;;;2.10;;
49416;SDS011;35290;39.550;8.786;2023-03-01T16:15:38;4.15;;;2.00;;
49416;SDS011;35290;39.550;8.786;2023-03-01T16:18:04;4.22;;;2.40;;
49416;SDS011;35290;39.550;8.786;2023-03-01T16:20:36;6.63;;;3.40;;
49416;SDS011;35290;39.550;8.786;2023-03-01T16:23:02;7.07;;;3.42;;
49416;SDS011;35290;39.550;8.786;2023-03-01T16:25:34;5.80;;;2.60;;
49416;SDS011;35290;39.550;8.786;2023-03-01T16:28:02;7.82;;;2.60;;
49416;SDS011;35290;39.550;8.786;2023-03-01T16:30:33;5.88;;;2.90;;
49416;SDS011;35290;39.550;8.786;2023-03-01T16:33:00;4.57;;;2.92;;
49416;SDS011;35290;39.550;8.786;2023-03-01T16:35:26;3.67;;;2.20;;
49416;SDS011;35290;39.550;8.786;2023-03-01T16:37:51;4.18;;;1.98;;
49416;SDS011;35290;39.550;8.786;2023-03-01T16:42:53;4.03;;;2.13;;
49416;SDS011;35290;39.550;8.786;2023-03-01T16:45:20;5.97;;;2.05;;
49416;SDS011;35290;39.550;8.786;2023-03-01T16:47:46;6.30;;;1.92;;